Time;durP1;ratioP1;P1;durP2;ratioP2;P2;SDS_P1;SDS_P2;PMS_P1;PMS_P2;Temp;Humidity;BMP_temperature;BMP_pressure;BME280_temperature;BME280_humidity;BME280_pressure;Samples;Min_cycle;Max_cycle;Signal;HPM_P1;HPM_P2
2022/06/22 00:00:18;;;;;;;5.13;2.35;;;18.20;94.10;;;;;;5091810;28;20076;-53
2022/06/22 00:02:46;;;;;;;6.63;2.95;;;18.10;94.10;;;;;;5091311;28;20387;-52
2022/06/22 00:05:29;;;;;;;5.53;3.03;;;18.10;93.00;;;;;;5091445;28;20028;-54
2022/06/22 00:07:59;;;;;;;5.63;2.75;;;18.20;93.10;;;;;;5090787;28;20027;-54
2022/06/22 00:10:39;;;;;;;5.88;2.30;;;18.20;92.50;;;;;;5091206;28;20291;-51
2022/06/22 00:13:16;;;;;;;4.53;2.85;;;18.30;92.50;;;;;;5089971;28;20028;-54
2022/06/22 00:15:52;;;;;;;5.60;2.70;;;18.30;93.00;;;;;;5087983;28;20024;-55
2022/06/22 00:18:42;;;;;;;7.10;2.70;;;18.30;92.50;;;;;;5091122;28;20020;-54
2022/06/22 00:21:14;;;;;;;3.35;2.63;;;18.30;92.40;;;;;;5089747;28;20609;-53
2022/06/22 00:23:42;;;;;;;4.90;2.15;;;18.20;93.20;;;;;;5089865;28;20024;-54
2022/06/22 00:26:37;;;;;;;3.70;2.72;;;18.10;92.50;;;;;;5089736;28;20050;-53
2022/06/22 00:29:09;;;;;;;3.08;2.17;;;18.20;92.70;;;;;;5089878;28;20044;-51
2022/06/22 00:31:42;;;;;;;6.45;2.72;;;18.20;91.50;;;;;;5089765;28;20024;-52
2022/06/22 00:34:11;;;;;;;4.72;2.28;;;18.20;91.70;;;;;;5090173;28;20354;-51
2022/06/22 00:36:58;;;;;;;6.15;2.20;;;18.20;91.60;;;;;;5090633;28;20016;-55
2022/06/22 00:39:28;;;;;;;6.57;2.90;;;18.20;91.50;;;;;;5089885;28;20426;-51
2022/06/22 00:42:14;;;;;;;3.53;1.98;;;18.20;91.40;;;;;;5090523;28;20023;-53
2022/06/22 00:44:55;;;;;;;4.93;2.13;;;18.20;91.80;;;;;;5090684;28;20376;-53
2022/06/22 00:47:45;;;;;;;3.47;2.00;;;18.10;91.10;;;;;;5089285;28;20051;-55
2022/06/22 00:50:20;;;;;;;6.95;2.60;;;18.10;91.20;;;;;;5090380;28;20027;-55
2022/06/22 00:53:01;;;;;;;5.20;2.28;;;18.10;90.90;;;;;;5087803;28;20487;-56
2022/06/22 00:55:38;;;;;;;2.85;2.58;;;18.10;91.40;;;;;;5089516;28;20035;-55
2022/06/22 00:58:21;;;;;;;3.20;2.13;;;18.10;91.30;;;;;;5089596;28;20106;-55
2022/06/22 01:00:58;;;;;;;;;;;18.10;91.50;;;;;;5091292;28;20446;-53
2022/06/22 01:03:33;;;;;;;4.20;1.95;;;18.20;91.20;;;;;;5089377;28;19945;-55
2022/06/22 01:06:09;;;;;;;7.05;2.30;;;18.20;91.30;;;;;;5089386;28;20020;-54
2022/06/22 01:08:50;;;;;;;8.00;2.17;;;18.20;90.70;;;;;;5090095;28;20077;-55
2022/06/22 01:14:17;;;;;;;5.45;2.28;;;18.40;90.40;;;;;;5089317;28;20190;-57
2022/06/22 01:16:48;;;;;;;16.02;4.95;;;18.50;92.20;;;;;;5090209;28;20276;-55
2022/06/22 01:19:55;;;;;;;18.38;5.22;;;18.30;95.70;;;;;;5089415;28;20008;-54
2022/06/22 01:22:49;;;;;;;8.23;3.35;;;17.80;99.50;;;;;;5085644;28;20034;-54
2022/06/22 01:25:54;;;;;;;7.68;3.55;;;17.50;99.90;;;;;;5090512;28;20031;-56
2022/06/22 01:28:21;;;;;;;10.50;3.83;;;17.00;99.90;;;;;;5089013;28;20673;-52
2022/06/22 01:30:52;;;;;;;10.00;4.07;;;16.90;99.90;;;;;;5088830;28;20024;-54
2022/06/22 01:33:39;;;;;;;10.68;4.25;;;16.90;99.90;;;;;;5089222;28;20103;-54
2022/06/22 01:36:20;;;;;;;8.27;3.90;;;16.70;99.90;;;;;;5090601;28;20055;-54
2022/06/22 01:38:45;;;;;;;18.58;4.47;;;16.60;99.90;;;;;;5089149;28;20482;-55
2022/06/22 01:41:42;;;;;;;11.63;4.57;;;16.60;99.90;;;;;;5089983;28;20135;-55
2022/06/22 01:44:51;;;;;;;9.90;3.70;;;16.60;99.90;;;;;;5090270;28;20033;-53
2022/06/22 01:47:25;;;;;;;11.02;4.88;;;16.60;99.90;;;;;;5067189;28;20028;-53
2022/06/22 01:49:50;;;;;;;;;;;16.60;99.90;;;;;;5072014;28;20116;-56
2022/06/22 01:52:53;;;;;;;9.38;4.25;;;16.60;99.90;;;;;;5084133;28;20412;-56
2022/06/22 01:55:21;;;;;;;9.55;4.88;;;16.60;99.90;;;;;;5094207;28;20130;-54
2022/06/22 01:58:02;;;;;;;14.35;5.47;;;16.60;99.90;;;;;;5092752;28;20486;-55
2022/06/22 02:00:27;;;;;;;9.27;4.40;;;16.60;99.90;;;;;;5093887;28;20103;-55
2022/06/22 02:03:13;;;;;;;10.07;4.78;;;16.70;99.90;;;;;;5094207;28;20111;-52
2022/06/22 02:05:48;;;;;;;8.63;4.53;;;16.80;99.90;;;;;;5094164;28;20047;-55
2022/06/22 02:08:36;;;;;;;6.40;4.53;;;16.60;99.90;;;;;;5094118;28;20372;-54
2022/06/22 02:11:05;;;;;;;6.85;4.72;;;16.40;99.90;;;;;;5094062;28;20031;-55
2022/06/22 02:14:08;;;;;;;8.70;4.88;;;16.30;99.90;;;;;;5093715;28;20528;-55
2022/06/22 02:16:56;;;;;;;10.15;4.80;;;16.40;99.90;;;;;;5093078;28;20063;-53
2022/06/22 02:19:22;;;;;;;6.97;5.40;;;16.40;99.90;;;;;;5093944;28;20095;-57
2022/06/22 02:21:52;;;;;;;10.88;4.60;;;16.50;99.90;;;;;;5093642;28;20070;-57
2022/06/22 02:24:33;;;;;;;9.45;5.45;;;16.50;99.90;;;;;;5093657;28;20024;-56
2022/06/22 02:27:01;;;;;;;7.68;4.30;;;16.40;99.90;;;;;;5093451;28;20517;-56
2022/06/22 02:29:39;;;;;;;10.00;4.57;;;16.40;99.90;;;;;;5093376;28;20039;-57
2022/06/22 02:32:08;;;;;;;4.53;3.90;;;16.40;99.90;;;;;;5093506;28;20058;-55
2022/06/22 02:34:35;;;;;;;8.38;4.82;;;16.30;99.90;;;;;;5093484;28;20020;-57
2022/06/22 02:37:07;;;;;;;10.00;4.68;;;16.40;99.90;;;;;;5093490;28;20024;-55
2022/06/22 02:39:38;;;;;;;12.32;4.57;;;16.40;99.90;;;;;;5093428;28;20069;-55
2022/06/22 02:44:50;;;;;;;8.13;4.50;;;16.30;99.90;;;;;;5093337;28;20035;-56
2022/06/22 02:47:23;;;;;;;10.50;4.80;;;16.20;99.90;;;;;;5092970;28;20028;-56
2022/06/22 02:50:14;;;;;;;8.88;4.97;;;16.20;99.90;;;;;;5093322;28;20028;-56
2022/06/22 02:52:44;;;;;;;8.82;4.75;;;16.20;99.90;;;;;;5093260;28;20027;-56
2022/06/22 02:55:13;;;;;;;8.95;4.63;;;16.00;99.90;;;;;;5092780;28;20043;-57
2022/06/22 02:57:51;;;;;;;8.32;5.18;;;16.10;99.90;;;;;;5093240;28;20020;-56
2022/06/22 03:00:20;;;;;;;6.68;5.05;;;16.00;99.90;;;;;;5092459;28;20024;-57
2022/06/22 03:02:47;;;;;;;9.32;4.80;;;16.00;99.90;;;;;;5093036;28;20380;-55
2022/06/22 03:05:14;;;;;;;7.35;5.25;;;16.00;99.90;;;;;;5092733;28;20116;-56
2022/06/22 03:07:48;;;;;;;7.40;4.68;;;15.90;99.90;;;;;;5093135;28;20475;-54
2022/06/22 03:10:40;;;;;;;10.05;5.43;;;16.00;99.90;;;;;;5092696;28;20119;-56
2022/06/22 03:13:08;;;;;;;5.68;4.40;;;16.00;99.90;;;;;;5092606;28;20028;-57
2022/06/22 03:15:36;;;;;;;7.30;4.28;;;15.90;99.90;;;;;;5092995;28;20044;-57
2022/06/22 03:18:04;;;;;;;13.13;6.25;;;15.80;99.90;;;;;;5092532;28;20035;-57
2022/06/22 03:20:37;;;;;;;7.22;5.28;;;15.80;99.90;;;;;;5092577;28;20024;-56
2022/06/22 03:23:22;;;;;;;9.55;5.43;;;15.80;99.90;;;;;;5092541;28;20016;-56
2022/06/22 03:25:53;;;;;;;9.75;5.35;;;15.70;99.90;;;;;;5092878;28;20040;-55
2022/06/22 03:28:26;;;;;;;9.07;4.88;;;15.60;99.90;;;;;;5092503;28;20020;-55
2022/06/22 03:30:59;;;;;;;10.27;5.60;;;15.60;99.90;;;;;;5092239;28;20023;-57
2022/06/22 03:33:37;;;;;;;5.72;5.10;;;15.60;99.90;;;;;;5090662;28;20049;-56
2022/06/22 03:36:12;;;;;;;10.25;5.30;;;15.50;99.90;;;;;;5092356;28;20020;-55
2022/06/22 03:38:46;;;;;;;5.40;4.82;;;15.60;99.90;;;;;;5092424;28;20031;-57
2022/06/22 03:41:17;;;;;;;14.73;5.13;;;15.60;99.90;;;;;;5091960;28;20043;-57
2022/06/22 03:44:03;;;;;;;8.35;4.80;;;15.70;99.90;;;;;;5092259;28;20103;-57
2022/06/22 03:46:36;;;;;;;10.60;5.55;;;15.70;99.90;;;;;;5092216;28;20073;-57
2022/06/22 03:49:07;;;;;;;12.15;5.13;;;15.80;99.90;;;;;;5091970;28;20024;-56
2022/06/22 03:52:00;;;;;;;6.65;5.25;;;15.70;99.90;;;;;;5092505;28;20052;-55
2022/06/22 03:54:42;;;;;;;5.40;4.72;;;15.80;99.90;;;;;;5091670;28;20436;-56
2022/06/22 03:57:11;;;;;;;12.50;5.70;;;15.90;99.90;;;;;;5091765;28;20017;-55
2022/06/22 03:59:40;;;;;;;9.05;4.85;;;16.00;99.90;;;;;;5092233;28;20096;-58
2022/06/22 04:02:06;;;;;;;6.40;4.95;;;16.00;99.90;;;;;;5091302;28;20012;-56
2022/06/22 04:04:32;;;;;;;6.00;5.20;;;16.10;99.90;;;;;;5091725;28;20670;-55
2022/06/22 04:06:58;;;;;;;7.50;5.10;;;16.20;99.90;;;;;;5092100;28;20066;-55
2022/06/22 04:09:27;;;;;;;7.85;4.80;;;16.20;99.90;;;;;;5092032;28;20020;-56
2022/06/22 04:12:11;;;;;;;13.02;5.50;;;16.40;99.90;;;;;;5091417;28;20448;-57
2022/06/22 04:14:54;;;;;;;10.15;5.70;;;16.40;99.90;;;;;;5092002;28;20020;-56
2022/06/22 04:17:28;;;;;;;6.78;5.90;;;16.40;99.90;;;;;;5092003;28;20115;-57
2022/06/22 04:20:06;;;;;;;10.55;6.00;;;16.50;99.90;;;;;;5092590;28;20015;-55
2022/06/22 04:22:38;;;;;;;16.17;6.32;;;16.60;99.90;;;;;;5092541;28;20054;-55
2022/06/22 04:25:30;;;;;;;12.65;5.32;;;16.70;99.90;;;;;;5092582;28;20028;-55
2022/06/22 04:28:00;;;;;;;10.10;4.63;;;16.80;99.90;;;;;;5092677;28;20467;-56
2022/06/22 04:30:31;;;;;;;17.38;5.32;;;16.80;99.90;;;;;;5091066;28;20035;-57
2022/06/22 04:33:04;;;;;;;9.63;4.75;;;16.90;99.90;;;;;;5091208;28;20027;-55
2022/06/22 04:35:35;;;;;;;7.28;6.15;;;17.00;99.90;;;;;;5090927;28;20062;-55
2022/06/22 04:38:16;;;;;;;7.45;4.75;;;17.10;99.90;;;;;;5091024;28;20020;-54
2022/06/22 04:41:01;;;;;;;7.38;4.57;;;17.20;99.90;;;;;;5090820;28;20089;-56
2022/06/22 04:43:28;;;;;;;6.47;5.10;;;17.30;99.90;;;;;;5091014;28;20024;-56
2022/06/22 04:45:54;;;;;;;11.55;5.82;;;17.30;99.90;;;;;;5091097;28;20326;-57
2022/06/22 04:48:30;;;;;;;10.00;5.43;;;17.30;99.90;;;;;;5091179;28;20077;-57
2022/06/22 04:51:00;;;;;;;13.02;5.40;;;17.30;99.90;;;;;;5090973;28;20486;-55
2022/06/22 04:53:33;;;;;;;10.40;5.15;;;17.20;99.90;;;;;;5089462;28;20039;-55
2022/06/22 04:56:03;;;;;;;9.20;5.22;;;17.10;99.90;;;;;;5090827;28;20028;-55
2022/06/22 04:58:38;;;;;;;14.23;5.10;;;17.00;99.90;;;;;;5090743;28;20020;-56
2022/06/22 05:01:05;;;;;;;6.57;4.78;;;17.00;99.90;;;;;;5090738;28;20024;-55
2022/06/22 05:03:32;;;;;;;8.45;4.40;;;16.90;99.90;;;;;;5090781;28;20094;-54
2022/06/22 05:06:03;;;;;;;13.13;4.82;;;16.80;99.90;;;;;;5090688;28;20056;-55
2022/06/22 05:08:42;;;;;;;5.65;4.80;;;16.70;99.90;;;;;;5090457;28;20425;-56
2022/06/22 05:11:17;;;;;;;9.07;3.95;;;16.70;99.90;;;;;;5090590;28;20057;-54
2022/06/22 05:13:47;;;;;;;10.82;4.53;;;16.70;99.90;;;;;;5090565;28;20020;-56
2022/06/22 05:16:18;;;;;;;8.18;4.13;;;16.70;99.90;;;;;;5090556;28;20517;-53
2022/06/22 05:18:45;;;;;;;9.90;4.10;;;16.70;99.90;;;;;;5090436;28;20111;-54
2022/06/22 05:21:27;;;;;;;10.63;4.70;;;16.60;99.90;;;;;;5090338;28;20038;-55
2022/06/22 05:23:57;;;;;;;11.35;4.32;;;16.70;99.90;;;;;;5090202;28;20044;-56
2022/06/22 05:26:26;;;;;;;12.10;3.97;;;16.80;99.90;;;;;;5090241;28;20376;-56
2022/06/22 05:29:07;;;;;;;7.15;3.42;;;17.00;99.90;;;;;;5090567;28;20055;-55
2022/06/22 05:31:42;;;;;;;11.13;4.30;;;17.00;99.90;;;;;;5090480;28;20035;-56
2022/06/22 05:34:32;;;;;;;8.48;3.72;;;17.10;99.90;;;;;;5090310;28;20020;-54
2022/06/22 05:37:07;;;;;;;4.22;3.42;;;17.20;99.90;;;;;;5090461;28;20024;-55
2022/06/22 05:39:35;;;;;;;15.10;4.20;;;17.30;99.90;;;;;;5090082;28;20036;-56
2022/06/22 05:42:02;;;;;;;7.72;3.63;;;17.30;99.90;;;;;;5090454;28;20031;-51
2022/06/22 05:44:28;;;;;;;6.32;3.47;;;17.40;99.90;;;;;;5090132;28;20246;-54
2022/06/22 05:46:56;;;;;;;10.35;4.20;;;17.40;99.90;;;;;;5090218;28;20027;-55
2022/06/22 05:49:34;;;;;;;9.00;3.80;;;17.40;99.90;;;;;;5090011;28;20031;-55
2022/06/22 05:52:11;;;;;;;5.70;3.60;;;17.40;99.90;;;;;;5090502;28;20020;-56
2022/06/22 05:54:41;;;;;;;10.50;3.55;;;17.40;99.90;;;;;;5090208;28;20627;-56
2022/06/22 05:57:16;;;;;;;12.88;4.00;;;17.50;99.90;;;;;;5090008;28;20031;-52
2022/06/22 06:00:02;;;;;;;5.80;3.78;;;17.50;99.90;;;;;;5090617;28;20096;-54
2022/06/22 06:02:54;;;;;;;10.85;4.05;;;17.60;99.90;;;;;;5090864;28;20093;-54
2022/06/22 06:05:33;;;;;;;5.47;3.83;;;17.60;99.90;;;;;;5090348;28;20020;-54
2022/06/22 06:08:02;;;;;;;3.92;3.58;;;17.80;99.90;;;;;;5090520;28;20026;-56
2022/06/22 06:10:32;;;;;;;8.02;3.63;;;17.90;99.90;;;;;;5090629;28;20041;-55
2022/06/22 06:13:25;;;;;;;11.73;4.57;;;18.00;99.90;;;;;;5090385;28;20020;-56
2022/06/22 06:15:56;;;;;;;5.22;3.58;;;18.30;99.90;;;;;;5090987;28;20059;-57
2022/06/22 06:18:31;;;;;;;5.40;4.43;;;18.40;99.90;;;;;;5091041;28;20016;-53
2022/06/22 06:21:09;;;;;;;6.45;3.97;;;18.40;99.90;;;;;;5091340;28;20024;-55
2022/06/22 06:23:45;;;;;;;5.07;3.95;;;18.40;99.90;;;;;;5091077;28;20107;-55
2022/06/22 06:29:30;;;;;;;5.25;3.65;;;18.60;99.90;;;;;;5091227;28;20089;-55
2022/06/22 06:32:22;;;;;;;4.63;3.58;;;18.70;99.90;;;;;;5091032;28;20028;-57
2022/06/22 06:35:02;;;;;;;8.23;4.30;;;18.80;99.90;;;;;;5093105;28;20028;-56
2022/06/22 06:38:04;;;;;;;8.50;4.18;;;18.90;99.90;;;;;;5094596;28;20020;-57
2022/06/22 06:40:40;;;;;;;7.80;3.90;;;19.20;99.90;;;;;;5093084;28;20032;-55
2022/06/22 06:43:36;;;;;;;6.03;3.58;;;19.50;99.90;;;;;;5094623;28;20467;-54
2022/06/22 06:46:23;;;;;;;7.15;4.22;;;19.40;99.90;;;;;;5094648;28;20039;-56
2022/06/22 06:49:23;;;;;;;6.50;4.00;;;19.50;99.90;;;;;;5094169;28;20082;-56
2022/06/22 06:52:21;;;;;;;5.95;4.20;;;19.60;99.90;;;;;;5092361;28;20431;-56
2022/06/22 06:55:08;;;;;;;4.95;4.25;;;19.70;99.90;;;;;;5094147;28;20085;-56
2022/06/22 06:57:38;;;;;;;9.35;4.00;;;19.90;99.90;;;;;;5093954;28;20494;-57
2022/06/22 07:00:10;;;;;;;13.45;4.38;;;20.00;99.90;;;;;;5094438;28;20051;-56
2022/06/22 07:02:39;;;;;;;8.10;4.17;;;19.80;99.90;;;;;;5094086;28;20375;-53
2022/06/22 07:05:13;;;;;;;9.55;4.28;;;19.90;99.90;;;;;;5093714;28;20030;-55
2022/06/22 07:07:44;;;;;;;;;;;19.90;99.90;;;;;;5092978;28;20586;-54
2022/06/22 07:10:18;;;;;;;8.88;4.55;;;20.10;99.90;;;;;;5094155;28;19904;-55
2022/06/22 07:12:46;;;;;;;5.32;3.90;;;20.30;99.90;;;;;;5094103;28;20027;-56
2022/06/22 07:15:22;;;;;;;7.15;4.35;;;20.40;99.90;;;;;;5093787;28;20386;-52
2022/06/22 07:17:53;;;;;;;7.43;4.53;;;20.40;99.90;;;;;;5092833;28;20024;-56
2022/06/22 07:20:25;;;;;;;7.18;4.68;;;20.40;99.90;;;;;;5094066;28;20025;-56
2022/06/22 07:23:01;;;;;;;6.47;4.70;;;20.50;99.90;;;;;;5093444;28;20020;-57
2022/06/22 07:25:36;;;;;;;10.07;4.57;;;20.60;99.90;;;;;;5093838;28;20553;-55
2022/06/22 07:28:08;;;;;;;10.05;5.65;;;20.70;99.90;;;;;;5093678;28;20107;-55
2022/06/22 07:30:40;;;;;;;7.57;4.32;;;20.90;99.90;;;;;;5093535;28;20020;-54
2022/06/22 07:33:24;;;;;;;6.85;4.50;;;21.00;99.90;;;;;;5093592;28;20051;-55
2022/06/22 07:35:59;;;;;;;7.93;4.10;;;21.20;99.90;;;;;;5092219;28;20038;-57
2022/06/22 07:38:30;;;;;;;11.40;5.53;;;21.30;99.90;;;;;;5092014;28;20024;-56
2022/06/22 07:43:42;;;;;;;6.50;4.47;;;21.60;99.90;;;;;;5092340;28;20035;-57
2022/06/22 07:46:12;;;;;;;8.25;4.25;;;21.70;99.90;;;;;;5090814;28;20028;-57
2022/06/22 07:48:43;;;;;;;6.80;4.30;;;21.70;99.90;;;;;;5092448;28;20023;-57
2022/06/22 07:51:19;;;;;;;6.03;4.57;;;21.70;99.90;;;;;;5090429;28;20060;-56
2022/06/22 07:54:09;;;;;;;8.50;5.07;;;21.70;99.90;;;;;;5082482;28;20048;-55
2022/06/22 07:56:52;;;;;;;12.18;5.18;;;21.70;99.90;;;;;;5080207;28;22494;-56
2022/06/22 07:59:25;;;;;;;8.30;5.35;;;21.60;99.90;;;;;;5081189;28;20115;-55
2022/06/22 08:01:56;;;;;;;9.13;4.87;;;21.50;99.90;;;;;;5082470;28;20032;-56
2022/06/22 08:04:44;;;;;;;107.57;56.67;;;21.80;99.90;;;;;;5080778;28;20043;-55
2022/06/22 08:07:24;;;;;;;14.98;7.30;;;21.80;99.90;;;;;;5082653;28;20024;-55
2022/06/22 08:09:59;;;;;;;9.60;4.55;;;21.80;99.90;;;;;;5082378;28;20028;-55
2022/06/22 08:12:29;;;;;;;9.23;4.85;;;22.00;99.90;;;;;;5063478;28;20028;-55
2022/06/22 08:14:56;;;;;;;10.35;4.25;;;22.00;99.90;;;;;;5080797;28;20107;-53
2022/06/22 08:17:30;;;;;;;7.28;4.20;;;22.00;99.90;;;;;;5075746;28;21163;-54
2022/06/22 08:19:56;;;;;;;7.95;4.22;;;22.00;99.90;;;;;;5080445;28;20089;-56
2022/06/22 08:22:22;;;;;;;7.70;4.50;;;21.90;99.90;;;;;;5079702;28;20028;-56
2022/06/22 08:24:51;;;;;;;9.10;4.78;;;21.90;99.90;;;;;;5082145;28;20027;-56
2022/06/22 08:27:18;;;;;;;8.55;4.95;;;22.00;99.90;;;;;;5080636;28;20483;-56
2022/06/22 08:29:48;;;;;;;13.70;4.78;;;22.00;99.90;;;;;;5081988;28;20036;-56
2022/06/22 08:32:52;;;;;;;9.05;4.72;;;22.00;99.90;;;;;;5081730;28;20383;-56
2022/06/22 08:35:43;;;;;;;9.27;4.30;;;22.00;99.90;;;;;;5076522;28;20534;-56
2022/06/22 08:38:11;;;;;;;10.05;4.32;;;22.10;99.90;;;;;;5081527;28;20041;-56
2022/06/22 08:41:06;;;;;;;9.85;4.05;;;22.30;99.90;;;;;;5087775;28;20048;-56
2022/06/22 08:43:57;;;;;;;10.52;4.25;;;22.30;99.90;;;;;;5076747;28;20032;-55
2022/06/22 08:46:50;;;;;;;5.93;3.60;;;22.40;99.90;;;;;;5071533;28;20028;-56
2022/06/22 08:49:53;;;;;;;4.50;3.08;;;22.60;99.90;;;;;;5069962;28;20353;-57
2022/06/22 08:52:27;;;;;;;5.30;3.80;;;22.80;99.90;;;;;;5071381;28;20559;-57
2022/06/22 08:55:27;;;;;;;9.13;3.67;;;23.00;99.90;;;;;;5071475;28;20024;-55
2022/06/22 08:58:01;;;;;;;8.95;3.78;;;23.20;99.90;;;;;;5065584;28;20090;-56
2022/06/22 09:00:33;;;;;;;5.28;3.88;;;23.20;99.90;;;;;;5070535;28;20055;-56
2022/06/22 09:03:15;;;;;;;8.88;4.40;;;23.30;99.90;;;;;;5070574;28;20009;-57
2022/06/22 09:06:18;;;;;;;6.43;3.78;;;23.40;99.90;;;;;;5070611;28;20488;-56
2022/06/22 09:09:12;;;;;;;5.95;3.72;;;23.70;99.20;;;;;;5070481;28;20028;-54
2022/06/22 09:11:57;;;;;;;11.30;3.83;;;23.80;99.70;;;;;;5069196;28;20040;-56
2022/06/22 09:14:44;;;;;;;7.78;4.30;;;24.00;99.20;;;;;;5070085;28;20020;-57
2022/06/22 09:17:31;;;;;;;6.20;3.97;;;24.10;99.10;;;;;;5068882;28;20029;-54
2022/06/22 09:20:13;;;;;;;10.95;3.95;;;24.20;99.00;;;;;;5070389;28;20032;-55
2022/06/22 09:23:17;;;;;;;6.65;4.32;;;24.50;98.60;;;;;;5070350;28;20021;-56
2022/06/22 09:25:45;;;;;;;;;;;24.80;98.20;;;;;;5070866;28;20021;-53
2022/06/22 09:28:27;;;;;;;12.68;4.25;;;24.80;97.40;;;;;;5070079;28;19905;-54
2022/06/22 09:31:18;;;;;;;8.88;4.38;;;24.70;98.20;;;;;;5068860;28;20112;-54
2022/06/22 09:33:59;;;;;;;8.05;3.80;;;24.40;97.40;;;;;;5069604;28;20027;-55
2022/06/22 09:36:52;;;;;;;11.98;3.95;;;24.40;98.20;;;;;;5070395;28;20021;-51
2022/06/22 09:40:08;;;;;;;10.37;3.47;;;24.40;98.30;;;;;;5070251;28;20021;-53
2022/06/22 09:43:00;;;;;;;4.53;3.22;;;24.70;97.30;;;;;;5061050;28;20662;-56
2022/06/22 09:45:56;;;;;;;14.00;4.50;;;24.80;97.70;;;;;;5070651;28;20020;-56
2022/06/22 09:48:41;;;;;;;6.85;4.05;;;24.60;97.60;;;;;;5071218;28;20021;-56
2022/06/22 09:51:25;;;;;;;10.88;3.90;;;24.30;98.10;;;;;;5070073;28;20119;-54
2022/06/22 09:56:19;;;;;;;8.57;3.65;;;24.10;99.10;;;;;;5086288;28;20039;-57
2022/06/22 09:57:17;;;;;;;6.97;3.70;;;24.30;99.90;;;;;;5089071;28;20039;-55
2022/06/22 10:00:17;;;;;;;10.40;4.10;;;24.40;99.80;;;;;;5091059;28;20033;-54
2022/06/22 10:02:43;;;;;;;12.10;3.67;;;24.60;99.10;;;;;;5087227;28;20397;-56
2022/06/22 10:05:32;;;;;;;8.75;3.42;;;24.90;98.70;;;;;;5091212;28;20115;-54
2022/06/22 10:08:04;;;;;;;11.80;3.95;;;24.90;97.50;;;;;;5091227;28;20119;-55
2022/06/22 10:11:02;;;;;;;9.50;3.97;;;25.20;97.50;;;;;;5094240;28;20031;-53
2022/06/22 10:13:54;;;;;;;9.43;3.38;;;25.10;97.50;;;;;;5074536;28;20040;-55
2022/06/22 10:16:54;;;;;;;9.20;3.55;;;25.00;97.30;;;;;;5092569;28;20024;-55
2022/06/22 10:19:58;;;;;;;6.78;4.53;;;24.80;98.10;;;;;;5094430;28;20048;-54
2022/06/22 10:22:24;;;;;;;12.02;4.00;;;24.80;98.40;;;;;;5093711;28;20036;-54
2022/06/22 10:25:21;;;;;;;9.55;4.43;;;24.60;97.50;;;;;;5089978;28;20036;-53
2022/06/22 10:27:46;;;;;;;7.10;3.80;;;24.40;98.10;;;;;;5083753;28;20063;-56
2022/06/22 10:30:36;;;;;;;5.60;3.88;;;24.30;98.50;;;;;;5084133;28;20071;-53
2022/06/22 10:33:27;;;;;;;13.60;4.10;;;24.10;99.90;;;;;;5084165;28;20077;-54
2022/06/22 10:36:30;;;;;;;8.30;4.30;;;24.10;99.50;;;;;;5082958;28;20028;-52
2022/06/22 10:39:05;;;;;;;11.25;3.70;;;24.20;99.90;;;;;;5083816;28;20098;-55
2022/06/22 10:45:10;;;;;;;12.50;4.20;;;24.30;99.90;;;;;;5068824;28;20359;-56
2022/06/22 10:48:14;;;;;;;6.47;3.38;;;24.30;99.90;;;;;;5070057;28;20060;-54
2022/06/22 10:51:11;;;;;;;18.77;4.30;;;24.30;99.40;;;;;;5074732;28;20036;-55
2022/06/22 10:54:03;;;;;;;8.25;3.97;;;24.60;99.90;;;;;;5082701;28;20032;-55
2022/06/22 10:56:50;;;;;;;6.55;3.58;;;24.70;99.70;;;;;;5080616;28;20036;-55
2022/06/22 10:59:38;;;;;;;13.70;4.90;;;24.80;99.00;;;;;;5083314;28;20046;-54
2022/06/22 11:02:35;;;;;;;9.38;3.83;;;24.70;99.30;;;;;;5083789;28;20024;-56
2022/06/22 11:05:15;;;;;;;16.88;3.88;;;24.70;99.90;;;;;;5083365;28;20607;-51
2022/06/22 11:08:08;;;;;;;6.95;4.35;;;24.50;99.60;;;;;;5083352;28;20028;-55
2022/06/22 11:11:17;;;;;;;12.88;5.50;;;24.10;99.90;;;;;;5083239;28;20032;-56
2022/06/22 11:14:06;;;;;;;9.23;4.60;;;24.30;99.90;;;;;;5082913;28;20482;-55
2022/06/22 11:16:40;;;;;;;4.32;3.72;;;24.40;99.90;;;;;;5082580;28;20060;-55
2022/06/22 11:19:55;;;;;;;11.70;5.13;;;24.50;99.90;;;;;;5064793;28;20349;-55
2022/06/22 11:22:30;;;;;;;7.32;4.10;;;25.00;98.50;;;;;;5039848;28;20063;-55
2022/06/22 11:25:08;;;;;;;5.35;3.78;;;25.10;98.00;;;;;;5080815;28;20131;-55
2022/06/22 11:31:33;;;;;;;7.63;4.78;;;25.00;98.90;;;;;;5082939;28;20081;-53
2022/06/22 11:34:26;;;;;;;10.10;4.30;;;25.10;99.00;;;;;;5072852;28;20118;-51
2022/06/22 11:36:54;;;;;;;6.05;3.72;;;25.00;99.20;;;;;;5082189;28;20034;-54
2022/06/22 11:39:45;;;;;;;5.80;4.68;;;25.10;98.60;;;;;;5081844;28;20036;-56
2022/06/22 11:42:17;;;;;;;8.43;4.50;;;24.90;98.80;;;;;;5081733;28;20036;-55
2022/06/22 11:48:05;;;;;;;13.38;5.38;;;24.80;98.50;;;;;;5082397;28;20577;-54
2022/06/22 11:51:04;;;;;;;7.70;4.80;;;24.60;98.90;;;;;;5080767;28;20044;-55
2022/06/22 11:53:36;;;;;;;9.70;5.00;;;24.40;99.00;;;;;;5080013;28;22801;-56
2022/06/22 11:56:14;;;;;;;9.88;4.47;;;24.20;99.50;;;;;;5081312;28;20036;-53
2022/06/22 11:58:53;;;;;;;9.18;5.28;;;24.10;99.50;;;;;;5081184;28;20077;-56
2022/06/22 12:01:27;;;;;;;9.43;4.55;;;24.00;99.90;;;;;;5081933;28;20028;-56
2022/06/22 12:04:06;;;;;;;9.98;4.20;;;23.90;99.80;;;;;;5091477;28;20541;-55
2022/06/22 12:06:39;;;;;;;12.73;4.25;;;23.90;99.90;;;;;;5092652;28;20016;-55
2022/06/22 12:09:52;;;;;;;13.07;4.82;;;24.10;99.90;;;;;;5091796;28;20024;-55
2022/06/22 12:13:12;;;;;;;11.45;4.88;;;24.20;99.90;;;;;;5069551;28;20115;-55
2022/06/22 12:15:58;;;;;;;13.27;4.63;;;24.30;99.90;;;;;;5010325;28;20612;-55
2022/06/22 12:18:27;;;;;;;10.95;4.90;;;24.40;99.90;;;;;;5087718;28;20416;-55
2022/06/22 12:20:52;;;;;;;13.73;4.70;;;24.60;99.90;;;;;;5092528;28;20008;-56
2022/06/22 12:23:21;;;;;;;10.15;5.25;;;24.60;99.90;;;;;;5091137;28;20020;-56
2022/06/22 12:26:08;;;;;;;14.48;6.55;;;24.60;99.90;;;;;;5091289;28;20028;-55
2022/06/22 12:29:12;;;;;;;11.18;4.85;;;24.70;99.90;;;;;;5091452;28;20027;-57
2022/06/22 12:31:43;;;;;;;7.63;5.20;;;25.10;99.90;;;;;;5079003;28;20122;-56
2022/06/22 12:34:18;;;;;;;10.52;5.22;;;25.10;99.90;;;;;;5091079;28;20028;-56
2022/06/22 12:36:49;;;;;;;10.48;5.07;;;25.30;99.90;;;;;;5091182;28;20067;-54
2022/06/22 12:39:24;;;;;;;7.47;4.95;;;25.30;99.70;;;;;;5091700;28;20383;-56
2022/06/22 12:42:02;;;;;;;5.45;4.90;;;25.40;99.40;;;;;;5092539;28;20095;-56
2022/06/22 12:44:48;;;;;;;13.82;5.15;;;25.60;99.00;;;;;;5092193;28;20024;-55
2022/06/22 12:47:16;;;;;;;11.02;5.20;;;25.40;98.70;;;;;;5092119;28;20078;-55
2022/06/22 12:50:21;;;;;;;10.02;5.00;;;25.50;99.00;;;;;;5092278;28;20020;-56
2022/06/22 12:52:53;;;;;;;8.68;6.15;;;25.70;98.50;;;;;;5069180;28;20395;-56
2022/06/22 12:55:26;;;;;;;8.55;5.85;;;25.70;98.80;;;;;;5068790;28;20033;-55
2022/06/22 12:57:59;;;;;;;11.88;5.93;;;25.70;98.40;;;;;;5081921;28;20027;-57
2022/06/22 13:00:26;;;;;;;16.85;5.55;;;25.60;98.00;;;;;;5091521;28;20016;-56
2022/06/22 13:02:58;;;;;;;15.25;6.15;;;25.40;98.30;;;;;;5090801;28;20016;-56
2022/06/22 13:05:34;;;;;;;14.32;6.20;;;25.60;98.60;;;;;;5090670;28;20541;-56
2022/06/22 13:08:06;;;;;;;12.68;5.03;;;25.80;97.60;;;;;;5090989;28;20376;-54
2022/06/22 13:10:40;;;;;;;7.80;4.85;;;25.80;97.60;;;;;;5090693;28;20027;-54
2022/06/22 13:13:40;;;;;;;7.25;4.45;;;26.10;97.40;;;;;;5090771;28;20032;-56
2022/06/22 13:16:19;;;;;;;9.00;3.80;;;26.00;97.40;;;;;;5090461;28;20054;-57
2022/06/22 13:18:48;;;;;;;9.18;4.05;;;25.90;97.70;;;;;;5090730;28;20039;-56
2022/06/22 13:21:17;;;;;;;11.80;4.65;;;25.70;97.50;;;;;;5090326;28;20024;-56
2022/06/22 13:24:08;;;;;;;9.02;4.50;;;25.50;98.00;;;;;;5090419;28;20016;-56
2022/06/22 13:26:52;;;;;;;8.63;4.32;;;25.60;98.30;;;;;;5090915;28;20028;-56
2022/06/22 13:29:31;;;;;;;15.70;4.40;;;25.70;96.80;;;;;;5090664;28;20073;-57
2022/06/22 13:32:00;;;;;;;9.35;4.13;;;25.70;98.10;;;;;;5090438;28;20024;-56
2022/06/22 13:34:45;;;;;;;6.65;4.18;;;25.70;98.00;;;;;;5090292;28;20059;-57
2022/06/22 13:37:33;;;;;;;12.30;5.63;;;25.60;97.90;;;;;;5090216;28;20111;-54
2022/06/22 13:39:58;;;;;;;13.38;5.70;;;25.30;97.10;;;;;;5090297;28;20111;-56
2022/06/22 13:43:01;;;;;;;6.95;5.30;;;25.40;98.40;;;;;;5090298;28;20048;-55
2022/06/22 13:45:48;;;;;;;9.75;4.28;;;25.40;98.10;;;;;;5094508;28;20024;-56
2022/06/22 13:48:19;;;;;;;10.65;4.50;;;25.60;99.90;;;;;;5094089;28;20020;-55
2022/06/22 13:53:32;;;;;;;8.45;3.70;;;25.90;99.60;;;;;;5094389;28;20025;-57
2022/06/22 13:56:15;;;;;;;8.57;4.45;;;26.30;97.90;;;;;;5094346;28;20602;-53
2022/06/22 13:58:54;;;;;;;12.63;4.70;;;26.20;97.90;;;;;;5094373;28;20034;-55
2022/06/22 14:01:43;;;;;;;10.30;4.72;;;25.80;98.20;;;;;;5094033;28;20024;-55
2022/06/22 14:04:18;;;;;;;12.88;7.28;;;26.00;97.80;;;;;;5093928;28;20071;-53
2022/06/22 14:06:52;;;;;;;10.32;6.22;;;25.60;97.00;;;;;;5093997;28;20031;-56
2022/06/22 14:09:28;;;;;;;11.23;5.50;;;25.30;97.90;;;;;;5093986;28;20073;-55